sensor_id;sensor_type;location;lat;lon;timestamp;P1;durP1;ratioP1;P2;durP2;ratioP2
66874;SDS011;53784;52.630;4.896;2023-02-13T00:00:17;34.23;;;15.50;;
66874;SDS011;53784;52.630;4.896;2023-02-13T00:02:43;33.20;;;15.93;;
66874;SDS011;53784;52.630;4.896;2023-02-13T00:05:08;34.43;;;15.70;;
66874;SDS011;53784;52.630;4.896;2023-02-13T00:07:33;33.55;;;15.60;;
66874;SDS011;53784;52.630;4.896;2023-02-13T00:09:58;34.57;;;15.93;;
66874;SDS011;53784;52.630;4.896;2023-02-13T00:12:23;35.10;;;15.87;;
66874;SDS011;53784;52.630;4.896;2023-02-13T00:14:49;32.37;;;15.67;;
66874;SDS011;53784;52.630;4.896;2023-02-13T00:17:14;35.90;;;16.67;;
66874;SDS011;53784;52.630;4.896;2023-02-13T00:19:39;35.17;;;15.63;;
66874;SDS011;53784;52.630;4.896;2023-02-13T00:22:04;34.17;;;15.60;;
66874;SDS011;53784;52.630;4.896;2023-02-13T00:24:29;35.10;;;16.23;;
66874;SDS011;53784;52.630;4.896;2023-02-13T00:26:55;36.07;;;15.97;;
66874;SDS011;53784;52.630;4.896;2023-02-13T00:29:20;34.17;;;16.07;;
66874;SDS011;53784;52.630;4.896;2023-02-13T00:31:45;37.22;;;16.48;;
66874;SDS011;53784;52.630;4.896;2023-02-13T00:34:10;34.87;;;16.13;;
66874;SDS011;53784;52.630;4.896;2023-02-13T00:36:35;34.87;;;16.10;;
66874;SDS011;53784;52.630;4.896;2023-02-13T00:39:00;33.55;;;15.68;;
66874;SDS011;53784;52.630;4.896;2023-02-13T00:41:26;38.33;;;16.65;;
66874;SDS011;53784;52.630;4.896;2023-02-13T00:43:51;34.10;;;16.15;;
66874;SDS011;53784;52.630;4.896;2023-02-13T00:46:16;34.07;;;16.20;;
66874;SDS011;53784;52.630;4.896;2023-02-13T00:48:42;35.13;;;15.90;;
66874;SDS011;53784;52.630;4.896;2023-02-13T00:51:07;35.17;;;16.60;;
66874;SDS011;53784;52.630;4.896;2023-02-13T00:53:33;34.67;;;16.02;;
66874;SDS011;53784;52.630;4.896;2023-02-13T00:55:58;36.55;;;16.77;;
66874;SDS011;53784;52.630;4.896;2023-02-13T00:58:24;33.03;;;16.15;;
66874;SDS011;53784;52.630;4.896;2023-02-13T01:00:50;35.08;;;16.38;;
66874;SDS011;53784;52.630;4.896;2023-02-13T01:03:16;34.90;;;15.70;;
66874;SDS011;53784;52.630;4.896;2023-02-13T01:05:42;34.67;;;15.88;;
66874;SDS011;53784;52.630;4.896;2023-02-13T01:08:07;32.80;;;15.77;;
66874;SDS011;53784;52.630;4.896;2023-02-13T01:10:33;34.45;;;15.50;;
66874;SDS011;53784;52.630;4.896;2023-02-13T01:12:58;34.13;;;15.95;;
66874;SDS011;53784;52.630;4.896;2023-02-13T01:15:23;33.93;;;15.70;;
66874;SDS011;53784;52.630;4.896;2023-02-13T01:17:48;33.47;;;16.13;;
66874;SDS011;53784;52.630;4.896;2023-02-13T01:20:14;33.28;;;16.35;;
66874;SDS011;53784;52.630;4.896;2023-02-13T01:22:39;33.83;;;16.17;;
66874;SDS011;53784;52.630;4.896;2023-02-13T01:25:05;31.67;;;15.27;;
66874;SDS011;53784;52.630;4.896;2023-02-13T01:27:30;31.33;;;14.52;;
66874;SDS011;53784;52.630;4.896;2023-02-13T01:29:56;32.67;;;15.85;;
66874;SDS011;53784;52.630;4.896;2023-02-13T01:32:21;33.53;;;15.65;;
66874;SDS011;53784;52.630;4.896;2023-02-13T01:34:46;34.40;;;15.53;;
66874;SDS011;53784;52.630;4.896;2023-02-13T01:37:12;36.47;;;16.53;;
66874;SDS011;53784;52.630;4.896;2023-02-13T01:39:37;35.97;;;15.60;;
66874;SDS011;53784;52.630;4.896;2023-02-13T01:42:02;32.40;;;15.60;;
66874;SDS011;53784;52.630;4.896;2023-02-13T01:44:44;35.10;;;15.88;;
66874;SDS011;53784;52.630;4.896;2023-02-13T01:47:10;37.47;;;16.17;;
66874;SDS011;53784;52.630;4.896;2023-02-13T01:49:36;35.28;;;16.80;;
66874;SDS011;53784;52.630;4.896;2023-02-13T01:52:01;33.92;;;15.75;;
66874;SDS011;53784;52.630;4.896;2023-02-13T01:54:27;34.45;;;16.02;;
66874;SDS011;53784;52.630;4.896;2023-02-13T01:56:58;33.45;;;15.70;;
66874;SDS011;53784;52.630;4.896;2023-02-13T01:59:26;34.42;;;16.02;;
66874;SDS011;53784;52.630;4.896;2023-02-13T02:01:52;35.38;;;15.63;;
66874;SDS011;53784;52.630;4.896;2023-02-13T02:04:36;34.42;;;15.50;;
66874;SDS011;53784;52.630;4.896;2023-02-13T02:07:05;31.77;;;15.45;;
66874;SDS011;53784;52.630;4.896;2023-02-13T02:09:33;32.45;;;15.05;;
66874;SDS011;53784;52.630;4.896;2023-02-13T02:12:09;36.88;;;16.35;;
66874;SDS011;53784;52.630;4.896;2023-02-13T02:14:36;32.85;;;14.90;;
66874;SDS011;53784;52.630;4.896;2023-02-13T02:17:02;33.60;;;15.48;;
66874;SDS011;53784;52.630;4.896;2023-02-13T02:19:34;32.23;;;15.13;;
66874;SDS011;53784;52.630;4.896;2023-02-13T02:22:05;32.47;;;15.30;;
66874;SDS011;53784;52.630;4.896;2023-02-13T02:24:53;33.53;;;15.68;;
66874;SDS011;53784;52.630;4.896;2023-02-13T02:35:10;31.25;;;14.52;;
66874;SDS011;53784;52.630;4.896;2023-02-13T03:00:47;31.25;;;14.82;;
66874;SDS011;53784;52.630;4.896;2023-02-13T03:03:32;31.98;;;15.32;;
66874;SDS011;53784;52.630;4.896;2023-02-13T03:06:51;32.28;;;14.18;;
66874;SDS011;53784;52.630;4.896;2023-02-13T03:09:09;30.90;;;14.45;;
66874;SDS011;53784;52.630;4.896;2023-02-13T03:11:54;28.95;;;14.18;;
66874;SDS011;53784;52.630;4.896;2023-02-13T03:14:38;31.38;;;14.57;;
66874;SDS011;53784;52.630;4.896;2023-02-13T03:17:04;31.47;;;14.10;;
66874;SDS011;53784;52.630;4.896;2023-02-13T03:22:39;33.45;;;14.55;;
66874;SDS011;53784;52.630;4.896;2023-02-13T03:38:29;41.38;;;20.23;;
66874;SDS011;53784;52.630;4.896;2023-02-13T03:41:01;34.35;;;15.90;;
66874;SDS011;53784;52.630;4.896;2023-02-13T03:43:58;43.00;;;20.58;;
66874;SDS011;53784;52.630;4.896;2023-02-13T03:46:25;32.78;;;14.90;;
66874;SDS011;53784;52.630;4.896;2023-02-13T03:48:50;34.10;;;15.73;;
66874;SDS011;53784;52.630;4.896;2023-02-13T03:51:50;33.75;;;14.70;;
66874;SDS011;53784;52.630;4.896;2023-02-13T03:54:20;35.75;;;15.73;;
66874;SDS011;53784;52.630;4.896;2023-02-13T03:56:48;37.08;;;15.57;;
66874;SDS011;53784;52.630;4.896;2023-02-13T03:59:33;34.78;;;15.68;;
66874;SDS011;53784;52.630;4.896;2023-02-13T04:02:12;37.17;;;16.05;;
66874;SDS011;53784;52.630;4.896;2023-02-13T04:04:49;35.78;;;16.70;;
66874;SDS011;53784;52.630;4.896;2023-02-13T04:07:17;34.30;;;15.43;;
66874;SDS011;53784;52.630;4.896;2023-02-13T04:10:07;36.17;;;16.45;;
66874;SDS011;53784;52.630;4.896;2023-02-13T04:17:48;38.83;;;16.55;;
66874;SDS011;53784;52.630;4.896;2023-02-13T04:20:16;40.83;;;16.98;;
66874;SDS011;53784;52.630;4.896;2023-02-13T04:22:42;43.25;;;18.17;;
66874;SDS011;53784;52.630;4.896;2023-02-13T04:25:08;41.50;;;18.73;;
66874;SDS011;53784;52.630;4.896;2023-02-13T04:27:34;43.85;;;18.83;;
66874;SDS011;53784;52.630;4.896;2023-02-13T04:29:59;43.70;;;19.13;;
66874;SDS011;53784;52.630;4.896;2023-02-13T04:32:24;45.60;;;19.80;;
66874;SDS011;53784;52.630;4.896;2023-02-13T04:34:49;45.43;;;20.03;;
66874;SDS011;53784;52.630;4.896;2023-02-13T04:37:14;46.53;;;20.00;;
66874;SDS011;53784;52.630;4.896;2023-02-13T04:39:39;45.87;;;19.47;;
66874;SDS011;53784;52.630;4.896;2023-02-13T04:42:05;43.77;;;19.03;;
66874;SDS011;53784;52.630;4.896;2023-02-13T04:44:30;45.75;;;19.40;;
66874;SDS011;53784;52.630;4.896;2023-02-13T04:46:55;46.63;;;19.37;;
66874;SDS011;53784;52.630;4.896;2023-02-13T04:49:20;45.27;;;18.47;;
66874;SDS011;53784;52.630;4.896;2023-02-13T04:51:45;42.90;;;18.07;;
66874;SDS011;53784;52.630;4.896;2023-02-13T04:54:10;44.47;;;19.57;;
66874;SDS011;53784;52.630;4.896;2023-02-13T04:56:36;43.47;;;18.45;;
66874;SDS011;53784;52.630;4.896;2023-02-13T04:59:01;43.80;;;18.50;;
66874;SDS011;53784;52.630;4.896;2023-02-13T05:01:26;44.97;;;19.43;;
66874;SDS011;53784;52.630;4.896;2023-02-13T05:03:51;42.17;;;18.93;;
66874;SDS011;53784;52.630;4.896;2023-02-13T05:06:16;41.97;;;18.80;;
66874;SDS011;53784;52.630;4.896;2023-02-13T05:08:42;41.88;;;18.45;;
66874;SDS011;53784;52.630;4.896;2023-02-13T05:11:07;40.60;;;17.80;;
66874;SDS011;53784;52.630;4.896;2023-02-13T05:13:32;43.70;;;18.73;;
66874;SDS011;53784;52.630;4.896;2023-02-13T05:15:57;42.47;;;17.20;;
66874;SDS011;53784;52.630;4.896;2023-02-13T05:18:23;40.22;;;17.30;;
66874;SDS011;53784;52.630;4.896;2023-02-13T05:20:48;43.28;;;18.45;;
66874;SDS011;53784;52.630;4.896;2023-02-13T05:23:33;42.22;;;18.08;;
66874;SDS011;53784;52.630;4.896;2023-02-13T05:25:58;43.25;;;18.50;;
66874;SDS011;53784;52.630;4.896;2023-02-13T05:28:24;41.63;;;16.95;;
66874;SDS011;53784;52.630;4.896;2023-02-13T05:31:07;43.95;;;17.38;;
66874;SDS011;53784;52.630;4.896;2023-02-13T05:33:33;42.07;;;17.57;;
66874;SDS011;53784;52.630;4.896;2023-02-13T05:35:58;41.87;;;17.77;;
66874;SDS011;53784;52.630;4.896;2023-02-13T05:38:23;41.00;;;17.15;;
66874;SDS011;53784;52.630;4.896;2023-02-13T05:40:48;41.90;;;17.77;;
66874;SDS011;53784;52.630;4.896;2023-02-13T05:43:13;41.43;;;16.97;;
66874;SDS011;53784;52.630;4.896;2023-02-13T05:45:39;39.07;;;16.50;;
66874;SDS011;53784;52.630;4.896;2023-02-13T05:48:04;42.87;;;17.17;;
66874;SDS011;53784;52.630;4.896;2023-02-13T05:50:29;39.83;;;16.58;;
66874;SDS011;53784;52.630;4.896;2023-02-13T05:52:54;42.10;;;17.20;;
66874;SDS011;53784;52.630;4.896;2023-02-13T05:55:20;38.03;;;16.48;;
66874;SDS011;53784;52.630;4.896;2023-02-13T05:57:45;38.60;;;16.15;;
66874;SDS011;53784;52.630;4.896;2023-02-13T06:00:10;41.50;;;17.00;;
66874;SDS011;53784;52.630;4.896;2023-02-13T06:02:35;39.33;;;16.70;;
66874;SDS011;53784;52.630;4.896;2023-02-13T06:05:01;39.35;;;16.33;;
66874;SDS011;53784;52.630;4.896;2023-02-13T06:07:26;41.42;;;16.48;;
66874;SDS011;53784;52.630;4.896;2023-02-13T06:09:51;37.37;;;16.33;;
66874;SDS011;53784;52.630;4.896;2023-02-13T06:12:16;37.50;;;16.23;;
66874;SDS011;53784;52.630;4.896;2023-02-13T06:14:41;40.40;;;16.55;;
66874;SDS011;53784;52.630;4.896;2023-02-13T06:17:07;38.87;;;16.07;;
66874;SDS011;53784;52.630;4.896;2023-02-13T06:19:32;36.33;;;15.57;;
66874;SDS011;53784;52.630;4.896;2023-02-13T06:21:57;38.00;;;16.03;;
66874;SDS011;53784;52.630;4.896;2023-02-13T06:24:22;39.30;;;15.83;;
66874;SDS011;53784;52.630;4.896;2023-02-13T06:26:47;37.57;;;15.67;;
66874;SDS011;53784;52.630;4.896;2023-02-13T06:29:12;38.53;;;14.80;;
66874;SDS011;53784;52.630;4.896;2023-02-13T06:31:38;36.40;;;15.90;;
66874;SDS011;53784;52.630;4.896;2023-02-13T06:34:03;39.30;;;15.77;;
66874;SDS011;53784;52.630;4.896;2023-02-13T06:36:28;38.70;;;15.23;;
66874;SDS011;53784;52.630;4.896;2023-02-13T06:38:53;40.28;;;15.20;;
66874;SDS011;53784;52.630;4.896;2023-02-13T06:41:19;36.27;;;15.30;;
66874;SDS011;53784;52.630;4.896;2023-02-13T06:43:44;35.05;;;15.18;;
66874;SDS011;53784;52.630;4.896;2023-02-13T06:46:09;37.63;;;15.20;;
66874;SDS011;53784;52.630;4.896;2023-02-13T06:48:34;32.90;;;14.43;;
66874;SDS011;53784;52.630;4.896;2023-02-13T06:50:59;37.63;;;14.98;;
66874;SDS011;53784;52.630;4.896;2023-02-13T06:53:26;37.28;;;14.77;;
66874;SDS011;53784;52.630;4.896;2023-02-13T06:55:51;34.58;;;14.25;;
66874;SDS011;53784;52.630;4.896;2023-02-13T06:58:17;36.10;;;14.48;;
66874;SDS011;53784;52.630;4.896;2023-02-13T07:00:43;33.53;;;14.48;;
66874;SDS011;53784;52.630;4.896;2023-02-13T07:03:09;34.40;;;13.87;;
66874;SDS011;53784;52.630;4.896;2023-02-13T07:05:34;35.35;;;13.90;;
66874;SDS011;53784;52.630;4.896;2023-02-13T07:07:59;36.30;;;14.47;;
66874;SDS011;53784;52.630;4.896;2023-02-13T07:10:24;35.83;;;14.57;;
66874;SDS011;53784;52.630;4.896;2023-02-13T07:12:49;34.75;;;14.48;;
66874;SDS011;53784;52.630;4.896;2023-02-13T07:15:14;33.53;;;13.57;;
66874;SDS011;53784;52.630;4.896;2023-02-13T07:17:40;35.60;;;14.18;;
66874;SDS011;53784;52.630;4.896;2023-02-13T07:20:05;37.60;;;15.07;;
66874;SDS011;53784;52.630;4.896;2023-02-13T07:22:31;34.70;;;14.63;;
66874;SDS011;53784;52.630;4.896;2023-02-13T07:24:56;34.80;;;14.30;;
66874;SDS011;53784;52.630;4.896;2023-02-13T07:27:23;34.95;;;14.25;;
66874;SDS011;53784;52.630;4.896;2023-02-13T07:29:48;34.35;;;14.35;;
66874;SDS011;53784;52.630;4.896;2023-02-13T07:32:13;34.72;;;14.30;;
66874;SDS011;53784;52.630;4.896;2023-02-13T07:34:39;34.78;;;14.93;;
66874;SDS011;53784;52.630;4.896;2023-02-13T07:37:04;35.08;;;14.10;;
66874;SDS011;53784;52.630;4.896;2023-02-13T07:39:29;32.50;;;13.50;;
66874;SDS011;53784;52.630;4.896;2023-02-13T07:41:55;31.30;;;13.52;;
66874;SDS011;53784;52.630;4.896;2023-02-13T07:44:20;38.58;;;14.70;;
66874;SDS011;53784;52.630;4.896;2023-02-13T07:46:46;31.73;;;13.20;;
66874;SDS011;53784;52.630;4.896;2023-02-13T07:49:11;35.60;;;14.25;;
66874;SDS011;53784;52.630;4.896;2023-02-13T07:51:36;34.80;;;14.37;;
66874;SDS011;53784;52.630;4.896;2023-02-13T07:54:01;33.78;;;14.15;;
66874;SDS011;53784;52.630;4.896;2023-02-13T07:56:26;30.23;;;12.75;;
66874;SDS011;53784;52.630;4.896;2023-02-13T07:58:52;35.30;;;13.85;;
66874;SDS011;53784;52.630;4.896;2023-02-13T08:01:17;35.42;;;14.02;;
66874;SDS011;53784;52.630;4.896;2023-02-13T08:03:46;32.92;;;13.30;;
66874;SDS011;53784;52.630;4.896;2023-02-13T08:06:11;32.17;;;13.23;;
66874;SDS011;53784;52.630;4.896;2023-02-13T08:08:37;33.20;;;12.87;;
66874;SDS011;53784;52.630;4.896;2023-02-13T08:11:04;35.25;;;13.98;;
66874;SDS011;53784;52.630;4.896;2023-02-13T08:13:48;35.50;;;14.23;;
66874;SDS011;53784;52.630;4.896;2023-02-13T08:16:14;32.67;;;13.87;;
66874;SDS011;53784;52.630;4.896;2023-02-13T08:18:39;32.70;;;13.18;;
66874;SDS011;53784;52.630;4.896;2023-02-13T08:21:04;31.03;;;12.70;;
66874;SDS011;53784;52.630;4.896;2023-02-13T08:23:30;32.50;;;13.02;;
66874;SDS011;53784;52.630;4.896;2023-02-13T08:25:57;30.35;;;13.27;;
66874;SDS011;53784;52.630;4.896;2023-02-13T08:28:23;33.42;;;13.25;;
66874;SDS011;53784;52.630;4.896;2023-02-13T08:30:48;31.17;;;12.97;;
66874;SDS011;53784;52.630;4.896;2023-02-13T08:33:13;34.10;;;13.40;;
66874;SDS011;53784;52.630;4.896;2023-02-13T08:35:38;30.00;;;11.83;;
66874;SDS011;53784;52.630;4.896;2023-02-13T08:38:03;32.03;;;13.17;;
66874;SDS011;53784;52.630;4.896;2023-02-13T08:40:29;29.17;;;12.80;;
66874;SDS011;53784;52.630;4.896;2023-02-13T08:43:00;32.40;;;13.18;;
66874;SDS011;53784;52.630;4.896;2023-02-13T08:45:26;30.63;;;12.48;;
66874;SDS011;53784;52.630;4.896;2023-02-13T08:47:54;32.20;;;12.63;;
66874;SDS011;53784;52.630;4.896;2023-02-13T08:50:19;32.35;;;12.05;;
66874;SDS011;53784;52.630;4.896;2023-02-13T08:52:44;35.00;;;12.47;;
66874;SDS011;53784;52.630;4.896;2023-02-13T08:55:10;32.73;;;13.13;;
66874;SDS011;53784;52.630;4.896;2023-02-13T08:57:35;31.10;;;13.00;;
66874;SDS011;53784;52.630;4.896;2023-02-13T09:00:00;31.47;;;12.97;;
66874;SDS011;53784;52.630;4.896;2023-02-13T09:02:25;32.35;;;13.48;;
66874;SDS011;53784;52.630;4.896;2023-02-13T09:04:50;32.88;;;13.88;;
66874;SDS011;53784;52.630;4.896;2023-02-13T09:07:15;32.60;;;13.30;;
66874;SDS011;53784;52.630;4.896;2023-02-13T09:09:41;34.70;;;12.68;;
66874;SDS011;53784;52.630;4.896;2023-02-13T09:12:06;34.30;;;13.85;;
66874;SDS011;53784;52.630;4.896;2023-02-13T09:14:31;30.60;;;12.60;;
66874;SDS011;53784;52.630;4.896;2023-02-13T09:16:57;32.35;;;13.45;;
66874;SDS011;53784;52.630;4.896;2023-02-13T09:19:22;31.30;;;13.43;;
66874;SDS011;53784;52.630;4.896;2023-02-13T09:21:47;34.67;;;13.47;;
66874;SDS011;53784;52.630;4.896;2023-02-13T09:24:13;30.40;;;12.90;;
66874;SDS011;53784;52.630;4.896;2023-02-13T09:26:38;30.23;;;12.27;;
66874;SDS011;53784;52.630;4.896;2023-02-13T09:29:03;30.23;;;12.90;;
66874;SDS011;53784;52.630;4.896;2023-02-13T09:31:28;33.53;;;13.45;;
66874;SDS011;53784;52.630;4.896;2023-02-13T09:33:53;31.45;;;12.93;;
66874;SDS011;53784;52.630;4.896;2023-02-13T09:36:20;28.83;;;12.70;;
66874;SDS011;53784;52.630;4.896;2023-02-13T09:38:52;31.55;;;13.52;;
66874;SDS011;53784;52.630;4.896;2023-02-13T09:43:53;30.35;;;12.60;;
66874;SDS011;53784;52.630;4.896;2023-02-13T09:46:23;30.95;;;13.30;;
66874;SDS011;53784;52.630;4.896;2023-02-13T09:48:50;30.13;;;13.50;;
66874;SDS011;53784;52.630;4.896;2023-02-13T09:51:17;29.40;;;13.45;;
66874;SDS011;53784;52.630;4.896;2023-02-13T09:53:46;31.77;;;13.52;;
66874;SDS011;53784;52.630;4.896;2023-02-13T09:56:13;29.85;;;13.15;;
66874;SDS011;53784;52.630;4.896;2023-02-13T09:58:51;31.27;;;13.65;;
66874;SDS011;53784;52.630;4.896;2023-02-13T10:01:30;27.95;;;13.15;;
66874;SDS011;53784;52.630;4.896;2023-02-13T10:06:28;31.38;;;13.80;;
66874;SDS011;53784;52.630;4.896;2023-02-13T10:11:34;29.50;;;12.98;;
66874;SDS011;53784;52.630;4.896;2023-02-13T10:14:16;31.77;;;13.65;;
66874;SDS011;53784;52.630;4.896;2023-02-13T10:16:44;29.13;;;13.00;;
66874;SDS011;53784;52.630;4.896;2023-02-13T10:21:39;27.25;;;12.85;;
66874;SDS011;53784;52.630;4.896;2023-02-13T10:25:07;33.10;;;14.52;;
66874;SDS011;53784;52.630;4.896;2023-02-13T10:27:03;31.23;;;13.75;;
66874;SDS011;53784;52.630;4.896;2023-02-13T10:29:35;30.58;;;15.07;;
66874;SDS011;53784;52.630;4.896;2023-02-13T10:32:29;30.40;;;14.13;;
66874;SDS011;53784;52.630;4.896;2023-02-13T10:34:56;31.58;;;14.35;;
66874;SDS011;53784;52.630;4.896;2023-02-13T10:37:22;29.92;;;13.52;;
66874;SDS011;53784;52.630;4.896;2023-02-13T10:39:49;30.50;;;14.30;;
66874;SDS011;53784;52.630;4.896;2023-02-13T10:54:44;29.20;;;14.03;;
66874;SDS011;53784;52.630;4.896;2023-02-13T11:02:26;27.27;;;13.52;;
66874;SDS011;53784;52.630;4.896;2023-02-13T11:04:56;26.92;;;13.77;;
66874;SDS011;53784;52.630;4.896;2023-02-13T11:07:22;26.83;;;13.73;;
66874;SDS011;53784;52.630;4.896;2023-02-13T11:09:48;27.95;;;14.68;;
66874;SDS011;53784;52.630;4.896;2023-02-13T11:14:53;29.70;;;15.43;;
66874;SDS011;53784;52.630;4.896;2023-02-13T11:17:18;27.70;;;14.98;;
66874;SDS011;53784;52.630;4.896;2023-02-13T11:19:48;27.30;;;14.77;;
66874;SDS011;53784;52.630;4.896;2023-02-13T11:22:25;28.00;;;14.57;;
66874;SDS011;53784;52.630;4.896;2023-02-13T11:24:52;27.70;;;14.38;;
66874;SDS011;53784;52.630;4.896;2023-02-13T11:27:21;28.48;;;15.10;;
66874;SDS011;53784;52.630;4.896;2023-02-13T11:29:54;29.65;;;15.30;;
66874;SDS011;53784;52.630;4.896;2023-02-13T11:32:27;29.33;;;14.90;;
66874;SDS011;53784;52.630;4.896;2023-02-13T11:34:53;27.42;;;14.25;;
66874;SDS011;53784;52.630;4.896;2023-02-13T11:37:23;28.90;;;14.23;;
66874;SDS011;53784;52.630;4.896;2023-02-13T11:39:50;26.60;;;14.35;;
66874;SDS011;53784;52.630;4.896;2023-02-13T11:42:18;29.58;;;15.15;;
66874;SDS011;53784;52.630;4.896;2023-02-13T11:44:47;27.88;;;14.38;;
66874;SDS011;53784;52.630;4.896;2023-02-13T11:47:12;27.05;;;14.63;;
66874;SDS011;53784;52.630;4.896;2023-02-13T11:49:39;26.27;;;14.63;;
66874;SDS011;53784;52.630;4.896;2023-02-13T11:52:21;27.60;;;15.18;;
66874;SDS011;53784;52.630;4.896;2023-02-13T11:54:47;27.23;;;14.52;;
66874;SDS011;53784;52.630;4.896;2023-02-13T11:59:53;28.30;;;15.15;;
66874;SDS011;53784;52.630;4.896;2023-02-13T12:04:44;26.03;;;14.57;;
66874;SDS011;53784;52.630;4.896;2023-02-13T12:09:44;24.73;;;13.82;;
66874;SDS011;53784;52.630;4.896;2023-02-13T12:12:18;25.58;;;14.10;;
66874;SDS011;53784;52.630;4.896;2023-02-13T12:14:45;25.98;;;14.65;;
66874;SDS011;53784;52.630;4.896;2023-02-13T12:17:18;27.85;;;15.43;;
66874;SDS011;53784;52.630;4.896;2023-02-13T12:19:45;25.95;;;14.55;;
66874;SDS011;53784;52.630;4.896;2023-02-13T12:45:32;27.70;;;15.18;;
66874;SDS011;53784;52.630;4.896;2023-02-13T12:53:34;27.50;;;16.20;;
66874;SDS011;53784;52.630;4.896;2023-02-13T13:14:18;28.70;;;16.33;;
66874;SDS011;53784;52.630;4.896;2023-02-13T13:22:16;27.75;;;16.38;;
66874;SDS011;53784;52.630;4.896;2023-02-13T13:27:21;29.63;;;16.15;;
66874;SDS011;53784;52.630;4.896;2023-02-13T13:29:56;28.20;;;15.95;;
66874;SDS011;53784;52.630;4.896;2023-02-13T13:32:22;26.23;;;15.85;;
66874;SDS011;53784;52.630;4.896;2023-02-13T13:34:48;29.00;;;16.70;;
66874;SDS011;53784;52.630;4.896;2023-02-13T13:37:17;27.67;;;16.50;;
66874;SDS011;53784;52.630;4.896;2023-02-13T13:39:56;26.15;;;16.35;;
66874;SDS011;53784;52.630;4.896;2023-02-13T13:44:58;25.48;;;16.20;;
66874;SDS011;53784;52.630;4.896;2023-02-13T13:50:00;27.15;;;16.48;;
66874;SDS011;53784;52.630;4.896;2023-02-13T13:54:55;27.88;;;17.08;;
66874;SDS011;53784;52.630;4.896;2023-02-13T13:57:24;28.60;;;17.27;;
66874;SDS011;53784;52.630;4.896;2023-02-13T14:07:37;28.77;;;16.52;;
66874;SDS011;53784;52.630;4.896;2023-02-13T14:10:05;30.25;;;16.30;;
66874;SDS011;53784;52.630;4.896;2023-02-13T14:14:56;29.45;;;16.65;;
66874;SDS011;53784;52.630;4.896;2023-02-13T14:22:51;29.98;;;16.45;;
66874;SDS011;53784;52.630;4.896;2023-02-13T14:25:23;30.88;;;16.60;;
66874;SDS011;53784;52.630;4.896;2023-02-13T14:27:59;29.60;;;16.23;;
66874;SDS011;53784;52.630;4.896;2023-02-13T14:30:29;30.58;;;16.67;;
66874;SDS011;53784;52.630;4.896;2023-02-13T14:32:55;30.92;;;17.20;;
66874;SDS011;53784;52.630;4.896;2023-02-13T14:35:25;29.25;;;16.08;;
66874;SDS011;53784;52.630;4.896;2023-02-13T14:37:52;28.73;;;15.80;;
66874;SDS011;53784;52.630;4.896;2023-02-13T14:42:43;28.30;;;15.93;;
66874;SDS011;53784;52.630;4.896;2023-02-13T14:45:10;31.88;;;17.05;;
66874;SDS011;53784;52.630;4.896;2023-02-13T14:47:41;27.60;;;15.38;;
66874;SDS011;53784;52.630;4.896;2023-02-13T14:50:13;31.02;;;17.08;;
66874;SDS011;53784;52.630;4.896;2023-02-13T14:52:39;31.13;;;16.30;;
66874;SDS011;53784;52.630;4.896;2023-02-13T14:55:19;31.50;;;16.52;;
66874;SDS011;53784;52.630;4.896;2023-02-13T14:57:51;29.63;;;16.02;;
66874;SDS011;53784;52.630;4.896;2023-02-13T15:00:25;28.65;;;15.25;;
66874;SDS011;53784;52.630;4.896;2023-02-13T15:03:35;31.52;;;16.17;;
66874;SDS011;53784;52.630;4.896;2023-02-13T15:05:39;31.33;;;17.00;;
66874;SDS011;53784;52.630;4.896;2023-02-13T15:08:07;31.40;;;15.98;;
66874;SDS011;53784;52.630;4.896;2023-02-13T15:10:39;33.90;;;17.23;;
66874;SDS011;53784;52.630;4.896;2023-02-13T15:13:11;32.80;;;17.08;;
66874;SDS011;53784;52.630;4.896;2023-02-13T15:15:38;31.98;;;16.70;;
66874;SDS011;53784;52.630;4.896;2023-02-13T15:18:07;31.90;;;16.05;;
66874;SDS011;53784;52.630;4.896;2023-02-13T15:20:33;33.35;;;17.85;;
66874;SDS011;53784;52.630;4.896;2023-02-13T15:22:59;33.25;;;18.02;;
66874;SDS011;53784;52.630;4.896;2023-02-13T15:27:52;32.42;;;17.35;;
66874;SDS011;53784;52.630;4.896;2023-02-13T15:32:43;33.47;;;17.63;;
66874;SDS011;53784;52.630;4.896;2023-02-13T15:35:25;34.53;;;18.80;;
66874;SDS011;53784;52.630;4.896;2023-02-13T15:37:50;36.83;;;18.58;;
66874;SDS011;53784;52.630;4.896;2023-02-13T15:40:21;33.75;;;17.60;;
66874;SDS011;53784;52.630;4.896;2023-02-13T15:42:48;33.88;;;17.67;;
66874;SDS011;53784;52.630;4.896;2023-02-13T15:45:14;36.65;;;18.80;;
66874;SDS011;53784;52.630;4.896;2023-02-13T15:47:40;38.35;;;19.58;;
66874;SDS011;53784;52.630;4.896;2023-02-13T15:50:13;37.47;;;19.55;;
66874;SDS011;53784;52.630;4.896;2023-02-13T15:52:38;35.75;;;18.67;;
66874;SDS011;53784;52.630;4.896;2023-02-13T15:55:04;36.37;;;20.17;;
66874;SDS011;53784;52.630;4.896;2023-02-13T15:57:29;39.63;;;19.40;;
66874;SDS011;53784;52.630;4.896;2023-02-13T15:59:55;38.05;;;19.42;;
66874;SDS011;53784;52.630;4.896;2023-02-13T16:02:22;39.72;;;19.95;;
66874;SDS011;53784;52.630;4.896;2023-02-13T16:04:50;37.60;;;19.25;;
66874;SDS011;53784;52.630;4.896;2023-02-13T16:07:16;37.58;;;19.75;;
66874;SDS011;53784;52.630;4.896;2023-02-13T16:09:41;38.42;;;18.77;;
66874;SDS011;53784;52.630;4.896;2023-02-13T16:14:46;41.65;;;18.92;;
66874;SDS011;53784;52.630;4.896;2023-02-13T16:17:25;39.25;;;18.95;;
66874;SDS011;53784;52.630;4.896;2023-02-13T16:30:22;40.80;;;19.75;;
66874;SDS011;53784;52.630;4.896;2023-02-13T16:32:48;39.03;;;19.23;;
66874;SDS011;53784;52.630;4.896;2023-02-13T16:35:22;41.15;;;19.42;;
66874;SDS011;53784;52.630;4.896;2023-02-13T16:37:51;40.15;;;18.95;;
66874;SDS011;53784;52.630;4.896;2023-02-13T16:45:46;41.30;;;19.27;;
66874;SDS011;53784;52.630;4.896;2023-02-13T16:48:12;41.03;;;19.00;;
66874;SDS011;53784;52.630;4.896;2023-02-13T16:50:38;40.85;;;19.17;;
66874;SDS011;53784;52.630;4.896;2023-02-13T16:53:04;37.28;;;18.35;;
66874;SDS011;53784;52.630;4.896;2023-02-13T16:55:29;37.42;;;19.60;;
66874;SDS011;53784;52.630;4.896;2023-02-13T16:58:04;37.97;;;18.20;;
66874;SDS011;53784;52.630;4.896;2023-02-13T17:00:29;33.05;;;17.17;;
66874;SDS011;53784;52.630;4.896;2023-02-13T17:02:55;34.88;;;17.33;;
66874;SDS011;53784;52.630;4.896;2023-02-13T17:05:24;33.73;;;17.97;;
66874;SDS011;53784;52.630;4.896;2023-02-13T17:07:52;34.25;;;18.27;;
66874;SDS011;53784;52.630;4.896;2023-02-13T17:12:43;33.07;;;18.00;;
66874;SDS011;53784;52.630;4.896;2023-02-13T17:15:10;32.03;;;18.08;;
66874;SDS011;53784;52.630;4.896;2023-02-13T17:17:36;34.67;;;18.23;;
66874;SDS011;53784;52.630;4.896;2023-02-13T17:20:01;33.75;;;18.27;;
66874;SDS011;53784;52.630;4.896;2023-02-13T17:22:38;32.90;;;18.35;;
66874;SDS011;53784;52.630;4.896;2023-02-13T17:25:06;32.90;;;17.98;;
66874;SDS011;53784;52.630;4.896;2023-02-13T17:27:32;33.75;;;18.58;;
66874;SDS011;53784;52.630;4.896;2023-02-13T17:29:57;31.52;;;18.10;;
66874;SDS011;53784;52.630;4.896;2023-02-13T17:32:23;30.73;;;18.07;;
66874;SDS011;53784;52.630;4.896;2023-02-13T17:34:49;36.50;;;18.83;;
66874;SDS011;53784;52.630;4.896;2023-02-13T17:37:19;33.72;;;18.42;;
66874;SDS011;53784;52.630;4.896;2023-02-13T17:39:44;33.63;;;19.48;;
66874;SDS011;53784;52.630;4.896;2023-02-13T17:42:13;33.58;;;19.02;;